.
WxDataArchive / Data Records for 2009-12-01
2009-11-30 December 2009 2009-12-02

Data Records for Tuesday, 01 December 2009

Time	Temp	Chill	HIndex	Humid	Dewpt	 Wind 	HiWind	WindDir	Rain 	Barom 
-----	----	-----	------	-----	-----	------	------	-------	-----	----- 
00:00	33.8	33.8	33.8	76	27.1	3	10	248	0.00	29.946 
00:05	33.8	30.2	33.8	76	27.1	4	9	248	0.00	29.946 
00:10	33.8	33.8	33.8	76	27.1	3	6	248	0.00	29.946 
00:15	33.8	33.8	33.8	76	27.1	3	9	248	0.00	29.943 
00:20	33.8	33.8	33.8	76	27.1	3	9	225	0.00	29.943 
00:25	33.8	33.8	33.8	76	27.1	3	11	248	0.00	29.943 
00:30	33.8	30.2	33.8	76	27.1	4	11	248	0.00	29.937 
00:35	34.0	34.0	34.0	76	27.2	3	9	248	0.00	29.937 
00:40	34.0	30.4	34.0	76	27.2	4	10	270	0.00	29.937 
00:45	34.0	30.4	34.0	76	27.2	4	12	248	0.00	29.934 
00:50	34.1	30.5	34.1	75	27.0	4	11	248	0.00	29.934 
00:55	34.1	34.1	34.1	75	27.0	3	10	270	0.00	29.934 
01:00	34.1	30.5	34.1	75	27.0	4	13	248	0.00	29.931 
01:05	34.1	34.1	34.1	75	27.0	3	9	248	0.00	29.931 
01:10	34.1	34.1	34.1	75	27.0	3	10	248	0.00	29.931 
01:15	34.1	34.1	34.1	76	27.3	3	17	248	0.00	29.928 
01:20	34.1	30.5	34.1	75	27.0	4	17	248	0.00	29.928 
01:25	34.3	34.3	34.3	75	27.2	3	9	270	0.00	29.928 
01:30	34.3	34.3	34.3	75	27.2	3	6	270	0.00	29.926 
01:35	34.1	30.5	34.1	75	27.0	4	11	248	0.00	29.926 
01:40	34.3	34.3	34.3	75	27.2	3	9	248	0.00	29.926 
01:45	34.3	30.7	34.3	75	27.2	4	11	248	0.00	29.924 
01:50	34.3	34.3	34.3	75	27.2	3	9	225	0.00	29.924 
01:55	34.3	34.3	34.3	75	27.2	3	7	248	0.00	29.924 
02:00	34.3	30.7	34.3	75	27.2	4	10	248	0.00	29.928 
02:05	34.3	34.3	34.3	75	27.2	2	6	248	0.00	29.928 
02:10	34.3	34.3	34.3	75	27.2	3	7	248	0.00	29.928 
02:15	34.3	34.3	34.3	75	27.2	3	9	248	0.00	29.922 
02:20	34.3	34.3	34.3	75	27.2	3	7	248	0.00	29.922 
02:25	34.3	34.3	34.3	75	27.2	3	8	248	0.00	29.922 
02:30	34.4	34.4	34.4	75	27.3	3	11	248	0.00	29.926 
02:35	34.4	30.8	34.4	75	27.3	4	14	270	0.00	29.926 
02:40	34.6	34.6	34.6	75	27.5	3	7	248	0.00	29.926 
02:45	34.9	34.9	34.9	74	27.5	3	8	248	0.00	29.928 
02:50	34.9	34.9	34.9	74	27.5	3	12	248	0.00	29.928 
02:55	35.0	35.0	35.0	73	27.2	3	7	248	0.00	29.928 
03:00	35.0	35.0	35.0	73	27.2	3	10	248	0.00	29.922 
03:05	35.0	35.0	35.0	73	27.2	3	7	248	0.00	29.922 
03:10	35.0	35.0	35.0	73	27.2	3	9	248	0.00	29.922 
03:15	35.0	35.0	35.0	74	27.6	3	9	248	0.00	29.923 
03:20	34.9	34.9	34.9	74	27.5	2	6	248	0.00	29.923 
03:25	35.0	35.0	35.0	74	27.6	3	9	248	0.00	29.923 
03:30	35.0	35.0	35.0	74	27.6	3	11	248	0.00	29.925 
03:35	35.3	31.9	35.3	73	27.5	4	11	248	0.00	29.925 
03:40	35.5	35.5	35.5	73	27.7	3	9	248	0.00	29.925 
03:45	35.8	32.5	35.8	72	27.7	4	13	248	0.00	29.921 
03:50	35.8	35.8	35.8	72	27.7	3	7	270	0.00	29.921 
03:55	35.9	31.7	35.9	72	27.8	5	11	270	0.00	29.921 
04:00	36.2	32.0	36.2	71	27.7	5	13	248	0.00	29.922 
04:05	36.2	32.9	36.2	71	27.7	4	12	248	0.00	29.922 
04:10	36.2	32.9	36.2	71	27.7	4	9	248	0.00	29.922 
04:15	36.0	32.7	36.0	71	27.5	4	12	248	0.00	29.921 
04:20	36.0	36.0	36.0	71	27.5	3	10	248	0.00	29.921 
04:25	35.9	35.9	35.9	72	27.8	3	7	248	0.00	29.921 
04:30	35.9	32.6	35.9	72	27.8	4	9	270	0.00	29.923 
04:35	35.8	35.8	35.8	72	27.7	3	6	248	0.00	29.923 
04:40	35.8	32.5	35.8	72	27.7	4	9	248	0.00	29.923 
04:45	35.8	35.8	35.8	73	28.0	3	10	248	0.00	29.920 
04:50	35.6	35.6	35.6	73	27.8	2	9	248	0.00	29.920 
04:55	35.5	35.5	35.5	73	27.7	3	10	248	0.00	29.920 
05:00	35.5	32.1	35.5	74	28.0	4	9	248	0.00	29.924 
05:05	35.6	35.6	35.6	73	27.8	3	7	248	0.00	29.924 
05:10	35.6	35.6	35.6	73	27.8	3	6	248	0.00	29.924 
05:15	35.6	35.6	35.6	73	27.8	2	10	248	0.00	29.924 
05:20	35.6	35.6	35.6	73	27.8	3	11	248	0.00	29.924 
05:25	35.8	32.5	35.8	73	28.0	4	9	248	0.00	29.924 
05:30	35.8	32.5	35.8	73	28.0	4	9	270	0.00	29.932 
05:35	35.8	32.5	35.8	73	28.0	4	13	270	0.00	29.932 
05:40	35.8	35.8	35.8	73	28.0	3	10	248	0.00	29.932 
05:45	35.8	35.8	35.8	73	28.0	3	5	270	0.00	29.933 
05:50	35.8	35.8	35.8	74	28.3	3	7	270	0.00	29.933 
05:55	35.6	35.6	35.6	74	28.1	2	7	248	0.00	29.933 
06:00	35.6	35.6	35.6	74	28.1	3	8	248	0.00	29.935 
06:05	35.6	35.6	35.6	74	28.1	3	8	248	0.00	29.935 
06:10	35.6	35.6	35.6	74	28.1	3	9	248	0.00	29.935 
06:15	35.6	35.6	35.6	74	28.1	3	7	248	0.00	29.945 
06:20	35.6	32.2	35.6	74	28.1	4	11	248	0.00	29.945 
06:25	35.5	35.5	35.5	75	28.4	3	7	248	0.00	29.945 
06:30	35.5	35.5	35.5	75	28.4	2	6	248	0.00	29.951 
06:35	35.5	35.5	35.5	75	28.4	3	8	248	0.00	29.951 
06:40	35.3	35.3	35.3	75	28.2	2	6	248	0.00	29.951 
06:45	35.5	35.5	35.5	75	28.4	3	8	248	0.00	29.954 
06:50	35.5	35.5	35.5	75	28.4	2	7	248	0.00	29.954 
06:55	35.5	35.5	35.5	75	28.4	2	10	248	0.00	29.954 
07:00	35.5	35.5	35.5	75	28.4	2	6	248	0.00	29.962 
07:05	35.3	35.3	35.3	75	28.2	3	7	248	0.00	29.962 
07:10	35.5	35.5	35.5	75	28.4	2	6	248	0.00	29.962 
07:15	35.5	35.5	35.5	75	28.4	3	9	248	0.00	29.969 
07:20	35.5	35.5	35.5	75	28.4	2	7	248	0.00	29.969 
07:25	35.5	35.5	35.5	75	28.4	2	6	248	0.00	29.969 
07:30	35.3	35.3	35.3	76	28.5	2	9	248	0.00	29.972 
07:35	35.3	35.3	35.3	76	28.5	3	7	248	0.00	29.972 
07:40	35.3	35.3	35.3	76	28.5	2	7	248	0.00	29.972 
07:45	35.3	35.3	35.3	76	28.5	3	7	248	0.00	29.973 
07:50	35.5	35.5	35.5	76	28.7	3	7	248	0.00	29.973 
07:55	35.5	35.5	35.5	75	28.4	3	6	248	0.00	29.973 
08:00	35.5	35.5	35.5	75	28.4	2	5	248	0.00	29.979 
08:05	35.5	35.5	35.5	75	28.4	3	6	248	0.00	29.979 
08:10	35.5	35.5	35.5	75	28.4	2	6	248	0.00	29.979 
08:15	35.6	35.6	35.6	75	28.5	2	6	248	0.00	29.981 
08:20	35.8	35.8	35.8	75	28.7	2	7	248	0.00	29.981 
08:25	35.9	35.9	35.9	75	28.8	2	6	248	0.00	29.981 
08:30	36.0	36.0	36.0	75	28.9	3	9	248	0.00	29.984 
08:35	36.2	36.2	36.2	74	28.7	1	6	248	0.00	29.984 
08:40	36.2	36.2	36.2	74	28.7	1	4	248	0.00	29.984 
08:45	36.3	36.3	36.3	74	28.8	1	5	248	0.00	29.982 
08:50	36.5	36.5	36.5	74	29.0	2	6	248	0.00	29.982 
08:55	36.8	36.8	36.8	74	29.3	1	4	248	0.00	29.982 
09:00	36.8	36.8	36.8	73	29.0	2	6	248	0.00	29.986 
09:05	36.8	36.8	36.8	73	29.0	2	5	248	0.00	29.986 
09:10	36.8	36.8	36.8	73	29.0	2	5	225	0.00	29.986 
09:15	36.9	36.9	36.9	73	29.1	2	9	248	0.00	29.985 
09:20	37.2	37.2	37.2	73	29.4	2	4	225	0.00	29.985 
09:25	37.6	37.6	37.6	73	29.7	1	4	248	0.00	29.985 
09:30	37.8	37.8	37.8	72	29.6	2	6	248	0.00	29.986 
09:35	37.9	37.9	37.9	71	29.4	2	7	248	0.00	29.986 
09:40	38.0	38.0	38.0	71	29.4	3	6	248	0.00	29.986 
09:45	38.2	38.2	38.2	70	29.3	3	7	248	0.00	29.987 
09:50	38.5	38.5	38.5	70	29.6	2	5	248	0.00	29.987 
09:55	38.8	38.8	38.8	70	29.9	1	5	248	0.00	29.987 
10:00	39.1	39.1	39.1	70	30.2	1	4	270	0.00	29.985 
10:05	39.5	39.5	39.5	69	30.2	1	4	270	0.00	29.985 
10:10	39.8	39.8	39.8	69	30.5	2	5	248	0.00	29.985 
10:15	40.1	40.1	40.1	68	30.4	2	4	248	0.00	29.992 
10:20	40.3	40.3	40.3	67	30.2	2	5	248	0.00	29.992 
10:25	40.6	40.6	40.6	67	30.5	2	6	248	0.00	29.992 
10:30	40.8	40.8	40.8	66	30.3	2	5	248	0.00	29.987 
10:35	41.1	41.1	41.1	66	30.6	2	6	248	0.00	29.987 
10:40	41.5	41.5	41.5	66	31.0	1	5	270	0.00	29.987 
10:45	41.8	41.8	41.8	65	30.9	2	5	248	0.00	29.984 
10:50	41.9	41.9	41.9	64	30.6	2	6	202	0.00	29.984 
10:55	42.1	42.1	42.1	65	31.2	3	6	248	0.00	29.984 
11:00	42.3	42.3	42.3	64	31.0	2	6	248	0.00	29.985 
11:05	42.5	42.5	42.5	64	31.2	2	7	248	0.00	29.985 
11:10	42.8	42.8	42.8	63	31.1	2	6	248	0.00	29.985 
11:15	42.8	42.8	42.8	62	30.7	3	7	248	0.00	29.982 
11:20	42.9	42.9	42.9	64	31.6	2	9	248	0.00	29.982 
11:25	43.2	43.2	43.2	62	31.1	3	6	248	0.00	29.982 
11:30	43.5	43.5	43.5	62	31.4	2	7	225	0.00	29.976 
11:35	43.8	43.8	43.8	61	31.2	2	6	225	0.00	29.976 
11:40	44.2	44.2	44.2	61	31.6	2	4	248	0.00	29.976 
11:45	44.5	44.5	44.5	60	31.5	2	7	248	0.00	29.971 
11:50	44.8	44.8	44.8	60	31.8	2	5	225	0.00	29.971 
11:55	44.9	44.9	44.9	61	32.3	2	7	248	0.00	29.971 
12:00	45.2	45.2	45.2	61	32.6	1	5	225	0.00	29.964 
12:05	45.5	45.5	45.5	60	32.4	2	7	248	0.00	29.964 
12:10	45.5	45.5	45.5	58	31.6	3	7	248	0.00	29.964 
12:15	45.8	45.8	45.8	59	32.3	3	6	248	0.00	29.959 
12:20	46.1	46.1	46.1	59	32.6	2	6	248	0.00	29.959 
12:25	46.5	46.5	46.5	57	32.1	3	10	248	0.00	29.959 
12:30	46.7	46.7	46.7	58	32.7	3	7	248	0.00	29.950 
12:35	46.8	46.8	46.8	57	32.4	3	9	270	0.00	29.950 
12:40	47.1	47.1	47.1	59	33.5	2	7	248	0.00	29.950 
12:45	47.7	47.7	47.7	58	33.7	1	4	248	0.00	29.942 
12:50	47.9	47.9	47.9	57	33.4	2	7	248	0.00	29.942 
12:55	48.0	48.0	48.0	57	33.5	3	9	248	0.00	29.942 
13:00	48.5	48.5	48.5	56	33.5	3	9	248	0.00	29.931 
13:05	48.9	48.9	48.9	55	33.5	3	9	248	0.00	29.931 
13:10	49.2	49.2	49.2	55	33.7	2	5	248	0.00	29.931 
13:15	49.4	49.4	49.4	56	34.4	1	4	270	0.00	29.928 
13:20	49.6	49.6	49.6	55	34.1	2	7	248	0.00	29.928 
13:25	49.8	49.8	49.8	55	34.3	3	6	248	0.00	29.928 
13:30	49.9	49.9	49.9	54	33.9	2	7	248	0.00	29.919 
13:35	50.1	50.1	50.1	55	34.6	1	8	248	0.00	29.919 
13:40	50.2	50.2	50.2	54	34.2	2	7	248	0.00	29.919 
13:45	50.4	50.4	50.4	54	34.4	2	7	248	0.00	29.912 
13:50	50.5	50.5	50.5	54	34.5	2	6	248	0.00	29.912 
13:55	50.7	50.7	50.7	55	35.1	2	5	248	0.00	29.912 
14:00	51.0	51.0	51.0	53	34.5	2	8	248	0.00	29.915 
14:05	51.1	51.1	51.1	53	34.6	2	5	248	0.00	29.915 
14:10	51.3	51.3	51.3	53	34.8	3	9	270	0.00	29.915 
14:15	51.6	51.6	51.6	52	34.6	3	9	248	0.00	29.911 
14:20	51.7	51.7	51.7	52	34.6	3	9	248	0.00	29.911 
14:25	51.7	51.7	51.7	51	34.2	4	12	248	0.00	29.911 
14:30	51.7	51.7	51.7	50	33.7	4	13	248	0.00	29.917 
14:35	51.7	51.7	51.7	50	33.7	5	12	270	0.00	29.917 
14:40	51.7	51.7	51.7	50	33.7	4	11	248	0.00	29.917 
14:45	51.9	51.9	51.9	51	34.3	4	9	225	0.00	29.930 
14:50	52.0	52.0	52.0	50	33.9	4	13	248	0.00	29.930 
14:55	51.9	51.9	51.9	50	33.9	4	10	248	0.00	29.930 
15:00	52.0	52.0	52.0	50	33.9	3	11	248	0.00	29.930 
15:05	52.2	52.2	52.2	48	33.1	4	11	248	0.00	29.930 
15:10	52.2	52.2	52.2	49	33.6	5	14	248	0.00	29.930 
15:15	52.3	52.3	52.3	49	33.7	4	7	225	0.00	29.934 
15:20	52.5	52.5	52.5	50	34.4	3	9	248	0.00	29.934 
15:25	52.8	52.8	52.8	50	34.7	3	7	248	0.00	29.934 
15:30	52.9	52.9	52.9	50	34.8	2	10	248	0.00	29.928 
15:35	53.2	53.2	53.2	48	34.0	2	6	248	0.00	29.928 
15:40	53.2	53.2	53.2	47	33.5	4	10	248	0.00	29.928 
15:45	52.9	52.9	52.9	48	33.7	4	10	248	0.00	29.924 
15:50	52.6	52.6	52.6	49	34.0	4	10	248	0.00	29.924 
15:55	52.5	52.5	52.5	48	33.4	3	10	248	0.00	29.924 
16:00	52.5	52.5	52.5	49	33.9	2	8	248	0.00	29.923 
16:05	52.3	52.3	52.3	49	33.7	3	9	248	0.00	29.923 
16:10	52.2	52.2	52.2	50	34.1	3	9	248	0.00	29.923 
16:15	52.0	52.0	52.0	50	33.9	3	9	248	0.00	29.926 
16:20	51.9	51.9	51.9	50	33.9	3	10	248	0.00	29.926 
16:25	51.7	51.7	51.7	50	33.7	3	9	248	0.00	29.926 
16:30	51.6	51.6	51.6	51	34.1	3	6	248	0.00	29.932 
16:35	51.3	51.3	51.3	51	33.8	2	5	248	0.00	29.932 
16:40	51.1	51.1	51.1	52	34.1	2	7	248	0.00	29.932 
16:45	50.8	50.8	50.8	52	33.8	1	4	248	0.00	29.928 
16:50	50.5	50.5	50.5	53	34.0	0	3	248	0.00	29.928 
16:55	50.2	50.2	50.2	54	34.2	1	4	248	0.00	29.928 
17:00	49.9	49.9	49.9	54	33.9	1	4	225	0.00	29.925 
17:05	49.8	49.8	49.8	55	34.3	1	5	270	0.00	29.925 
17:10	49.6	49.6	49.6	56	34.6	0	3	248	0.00	29.925 
17:15	49.2	49.2	49.2	57	34.6	0	3	270	0.00	29.928 
17:20	48.8	48.8	48.8	58	34.7	0	5	270	0.00	29.928 
17:25	48.3	48.3	48.3	59	34.6	0	1	270	0.00	29.928 
17:30	47.9	47.9	47.9	61	35.1	0	2	315	0.00	29.930 
17:35	47.4	47.4	47.4	62	35.0	0	3	202	0.00	29.930 
17:40	47.3	47.3	47.3	62	34.9	0	5	225	0.00	29.930 
17:45	47.1	47.1	47.1	62	34.8	0	1	225	0.00	29.931 
17:50	47.0	47.0	47.0	62	34.7	0	2	225	0.00	29.931 
17:55	46.8	46.8	46.8	62	34.5	0	1	248	0.00	29.931 
18:00	46.5	46.5	46.5	63	34.6	1	3	292	0.00	29.935 
18:05	46.4	46.4	46.4	63	34.5	1	3	292	0.00	29.935 
18:10	46.2	46.2	46.2	63	34.3	0	1	292	0.00	29.935 
18:15	46.0	46.0	46.0	64	34.5	0	3	292	0.00	29.937 
18:20	46.0	46.0	46.0	64	34.5	1	5	248	0.00	29.937 
18:25	46.0	46.0	46.0	64	34.5	1	5	248	0.00	29.937 
18:30	45.8	45.8	45.8	64	34.3	0	4	225	0.00	29.941 
18:35	45.5	45.5	45.5	64	34.0	0	3	225	0.00	29.941 
18:40	45.2	45.2	45.2	65	34.1	1	4	248	0.00	29.941 
18:45	45.1	45.1	45.1	65	34.0	1	6	248	0.00	29.934 
18:50	45.1	45.1	45.1	66	34.4	1	3	248	0.00	29.934 
18:55	44.9	44.9	44.9	66	34.2	0	4	248	0.00	29.934 
19:00	44.8	44.8	44.8	66	34.1	0	2	248	0.00	29.940 
19:05	44.6	44.6	44.6	67	34.3	1	3	248	0.00	29.940 
19:10	44.5	44.5	44.5	67	34.2	0	2	248	0.00	29.940 
19:15	44.3	44.3	44.3	67	34.0	1	3	248	0.00	29.945 
19:20	44.3	44.3	44.3	67	34.0	1	3	248	0.00	29.945 
19:25	44.2	44.2	44.2	67	33.9	1	4	248	0.00	29.945 
19:30	44.2	44.2	44.2	67	33.9	1	3	248	0.00	29.944 
19:35	44.2	44.2	44.2	67	33.9	1	5	248	0.00	29.944 
19:40	44.1	44.1	44.1	67	33.9	1	4	248	0.00	29.944 
19:45	43.9	43.9	43.9	67	33.7	1	3	248	0.00	29.945 
19:50	43.8	43.8	43.8	68	33.9	1	3	248	0.00	29.945 
19:55	43.8	43.8	43.8	68	33.9	1	5	270	0.00	29.945 
20:00	43.8	43.8	43.8	67	33.6	1	3	248	0.00	29.944 
20:05	43.6	43.6	43.6	68	33.7	1	3	270	0.00	29.944 
20:10	43.5	43.5	43.5	68	33.7	1	4	248	0.00	29.944 
20:15	43.3	43.3	43.3	68	33.5	1	3	248	0.00	29.945 
20:20	43.2	43.2	43.2	68	33.4	1	4	248	0.00	29.945 
20:25	43.2	43.2	43.2	68	33.4	1	5	270	0.00	29.945 
20:30	43.1	43.1	43.1	68	33.3	1	5	248	0.00	29.944 
20:35	43.1	43.1	43.1	68	33.3	1	4	248	0.00	29.944 
20:40	42.9	42.9	42.9	68	33.1	1	5	248	0.00	29.944 
20:45	42.8	42.8	42.8	68	33.0	1	3	225	0.00	29.943 
20:50	42.5	42.5	42.5	68	32.7	0	2	225	0.00	29.943 
20:55	42.3	42.3	42.3	69	32.9	0	3	225	0.00	29.943 
21:00	42.2	42.2	42.2	69	32.8	0	3	225	0.00	29.941 
21:05	42.1	42.1	42.1	69	32.7	1	4	225	0.00	29.941 
21:10	41.9	41.9	41.9	69	32.5	1	3	292	0.00	29.941 
21:15	41.9	41.9	41.9	69	32.5	1	5	248	0.00	29.942 
21:20	41.9	41.9	41.9	69	32.5	0	2	248	0.00	29.942 
21:25	41.8	41.8	41.8	69	32.4	1	4	0	0.00	29.942 
21:30	41.6	41.6	41.6	69	32.2	1	3	338	0.00	29.936 
21:35	41.6	41.6	41.6	69	32.2	1	3	270	0.00	29.936 
21:40	41.6	41.6	41.6	69	32.2	0	3	248	0.00	29.936 
21:45	41.5	41.5	41.5	69	32.1	0	4	248	0.00	29.935 
21:50	41.3	41.3	41.3	69	31.9	1	4	248	0.00	29.935 
21:55	41.3	41.3	41.3	68	31.5	1	3	248	0.00	29.935 
22:00	41.3	41.3	41.3	68	31.5	0	3	248	0.00	29.936 
22:05	41.2	41.2	41.2	68	31.5	0	2	248	0.00	29.936 
22:10	41.2	41.2	41.2	68	31.5	1	5	248	0.00	29.936 
22:15	41.2	41.2	41.2	68	31.5	0	3	248	0.00	29.931 
22:20	41.1	41.1	41.1	68	31.4	0	2	248	0.00	29.931 
22:25	40.9	40.9	40.9	68	31.2	0	5	248	0.00	29.931 
22:30	40.8	40.8	40.8	69	31.4	0	4	248	0.00	29.928 
22:35	40.3	40.3	40.3	69	31.0	0	2	248	0.00	29.928 
22:40	40.1	40.1	40.1	70	31.1	0	1	248	0.00	29.928 
22:45	39.6	39.6	39.6	70	30.6	0	0	---	0.00	29.934 
22:50	39.3	39.3	39.3	71	30.7	0	1	248	0.00	29.934 
22:55	39.1	39.1	39.1	72	30.8	0	1	248	0.00	29.934 
23:00	39.1	39.1	39.1	72	30.8	0	2	248	0.00	29.935 
23:05	38.9	38.9	38.9	73	31.0	0	1	248	0.00	29.935 
23:10	38.8	38.8	38.8	73	30.9	0	1	248	0.00	29.935 
23:15	38.6	38.6	38.6	73	30.7	0	0	---	0.00	29.933 
23:20	38.3	38.3	38.3	73	30.4	0	0	---	0.00	29.933 
23:25	38.2	38.2	38.2	74	30.7	0	0	---	0.00	29.933 
23:30	38.2	38.2	38.2	74	30.7	0	1	248	0.00	29.938 
23:35	38.2	38.2	38.2	74	30.7	0	1	248	0.00	29.938 
23:40	38.2	38.2	38.2	75	31.0	0	1	248	0.00	29.938 
23:45	38.2	38.2	38.2	75	31.0	0	2	248	0.00	29.942 
23:50	38.3	38.3	38.3	75	31.1	0	2	248	0.00	29.942 
23:55	38.5	38.5	38.5	75	31.3	0	2	248	0.00	29.942 

CoCoRaHS
IN-AL-39
A2 Web Hosting
Creative Commons License
GoDaddy
search engine by freefind advanced

loaded 2018-11-17 22:30:45 • last modified 2010-11-18 10:43:29
Privacy PolicyDisclaimer
• wx.awcolley.com is powered by PmWiki v.2002016 •
• all content (unless otherwise noted) © 2018 A W Colley